createdAt,value
2022-12-18T00:02:15.810Z,103049.56
2022-12-18T00:04:42.366Z,103043.41
2022-12-18T00:07:08.768Z,103038.94
2022-12-18T00:09:40.074Z,103030.28
2022-12-18T00:14:45.344Z,103026.50
2022-12-18T00:17:12.142Z,103027.44
2022-12-18T00:19:38.602Z,103029.06
2022-12-18T00:22:06.054Z,103032.41
2022-12-18T00:24:32.560Z,103033.91
2022-12-18T00:26:58.996Z,103040.81
2022-12-18T00:29:25.406Z,103038.38
2022-12-18T00:31:51.943Z,103037.69
2022-12-18T00:34:18.476Z,103034.25
2022-12-18T00:36:44.929Z,103030.97
2022-12-18T00:39:12.776Z,103026.78
2022-12-18T00:41:57.892Z,103027.66
2022-12-18T00:44:24.350Z,103016.44
2022-12-18T00:46:50.751Z,103020.53
2022-12-18T00:49:19.892Z,103030.03
2022-12-18T00:51:46.899Z,103033.41
2022-12-18T00:54:13.893Z,103035.00
2022-12-18T00:56:48.196Z,103026.38
2022-12-18T00:59:15.576Z,103032.22
2022-12-18T01:01:42.210Z,103025.44
2022-12-18T01:04:09.179Z,103027.19
2022-12-18T01:06:35.735Z,103023.78
2022-12-18T01:09:03.141Z,103014.25
2022-12-18T01:11:29.789Z,103019.44
2022-12-18T01:13:56.474Z,103009.28
2022-12-18T01:16:23.088Z,103015.94
2022-12-18T01:18:53.401Z,103020.06
2022-12-18T01:21:20.219Z,103022.59
2022-12-18T01:23:47.391Z,103029.50
2022-12-18T01:26:17.349Z,103015.78
2022-12-18T01:28:44.782Z,103032.75
2022-12-18T01:31:14.296Z,103039.50
2022-12-18T01:33:41.568Z,103031.84
2022-12-18T01:36:15.196Z,103033.41
2022-12-18T01:38:41.990Z,103044.53
2022-12-18T01:41:09.777Z,103042.81
2022-12-18T01:43:47.455Z,103041.75
2022-12-18T01:46:14.832Z,103032.31
2022-12-18T01:48:42.066Z,103048.34
2022-12-18T01:51:11.539Z,103048.28
2022-12-18T01:53:41.581Z,103038.66
2022-12-18T01:56:09.862Z,103044.50
2022-12-18T01:58:47.420Z,103039.28
2022-12-18T02:01:14.256Z,103042.38
2022-12-18T02:03:45.257Z,103038.00
2022-12-18T02:06:29.040Z,103050.66
2022-12-18T02:09:14.991Z,103054.75
2022-12-18T02:11:41.405Z,103057.19
2022-12-18T02:14:39.293Z,103050.28
2022-12-18T02:17:38.083Z,103050.16
2022-12-18T02:20:46.117Z,103051.75
2022-12-18T02:23:40.692Z,103045.50
2022-12-18T02:26:45.657Z,103051.31
2022-12-18T02:29:28.436Z,103060.56
2022-12-18T02:32:01.705Z,103068.22
2022-12-18T02:34:32.072Z,103047.78
2022-12-18T02:37:01.149Z,103057.81
2022-12-18T02:39:30.354Z,103048.47
2022-12-18T02:41:58.524Z,103044.97
2022-12-18T02:44:24.958Z,103049.19
2022-12-18T02:46:53.819Z,103036.34
2022-12-18T02:49:30.595Z,103032.94
2022-12-18T02:52:08.345Z,103030.34
2022-12-18T02:55:04.015Z,103036.16
2022-12-18T02:57:45.920Z,103030.84
2022-12-18T03:00:19.540Z,103029.94
2022-12-18T03:03:06.708Z,103029.00
2022-12-18T03:06:13.569Z,103020.50
2022-12-18T03:08:48.081Z,103011.88
2022-12-18T03:11:15.215Z,103016.09
2022-12-18T03:13:51.182Z,103016.81
2022-12-18T03:16:25.708Z,103014.09
2022-12-18T03:19:00.644Z,103013.97
2022-12-18T03:21:43.556Z,103018.19
2022-12-18T03:24:11.946Z,103006.19
2022-12-18T03:26:43.890Z,103003.56
2022-12-18T03:29:19.949Z,102996.75
2022-12-18T03:31:52.428Z,103000.13
2022-12-18T03:34:25.318Z,103000.03
2022-12-18T03:36:51.898Z,102994.75
2022-12-18T03:39:18.678Z,102984.53
2022-12-18T03:41:52.064Z,102981.91
2022-12-18T03:44:30.504Z,102987.00
2022-12-18T03:47:14.413Z,102985.13
2022-12-18T03:50:01.926Z,102976.50
2022-12-18T03:52:37.926Z,102984.00
2022-12-18T03:55:08.059Z,102980.59
2022-12-18T03:57:35.137Z,102984.69
2022-12-18T04:00:07.648Z,102978.66
2022-12-18T04:02:36.001Z,102976.91
2022-12-18T04:05:06.531Z,102972.63
2022-12-18T04:07:34.063Z,102971.75
2022-12-18T04:10:04.082Z,102968.28
2022-12-18T04:12:31.211Z,102964.75
2022-12-18T04:14:57.917Z,102966.47
2022-12-18T04:17:24.861Z,102955.38
2022-12-18T04:19:51.483Z,102952.78
2022-12-18T04:22:18.015Z,102945.88
2022-12-18T04:24:44.528Z,102955.09
2022-12-18T04:27:10.994Z,102950.91
2022-12-18T04:29:37.518Z,102939.75
2022-12-18T04:32:04.115Z,102948.22
2022-12-18T04:34:30.574Z,102940.59
2022-12-18T04:36:57.384Z,102943.88
2022-12-18T04:39:24.018Z,102944.69
2022-12-18T04:41:51.240Z,102947.94
2022-12-18T04:44:18.611Z,102956.31
2022-12-18T04:46:45.116Z,102963.06
2022-12-18T04:49:11.790Z,102962.91
2022-12-18T04:51:38.449Z,102976.44
2022-12-18T04:54:04.907Z,102983.19
2022-12-18T04:56:32.831Z,102983.97
2022-12-18T04:58:59.281Z,102989.03
2022-12-18T05:01:30.950Z,102989.00
2022-12-18T05:04:01.069Z,102998.16
2022-12-18T05:06:27.595Z,102996.38
2022-12-18T05:08:54.077Z,102997.19
2022-12-18T05:11:20.642Z,103007.34
2022-12-18T05:13:47.157Z,103001.34
2022-12-18T05:16:17.154Z,103004.75
2022-12-18T05:18:43.866Z,103004.66
2022-12-18T05:21:10.433Z,103011.50
2022-12-18T05:23:37.388Z,103017.38
2022-12-18T05:26:06.698Z,103015.63
2022-12-18T05:28:35.837Z,103027.47
2022-12-18T05:31:04.185Z,103024.06
2022-12-18T05:33:33.764Z,103036.75
2022-12-18T05:36:06.622Z,103030.72
2022-12-18T05:38:35.632Z,103034.06
2022-12-18T05:41:03.014Z,103027.31
2022-12-18T05:43:29.903Z,103023.16
2022-12-18T05:45:58.825Z,103010.34
2022-12-18T05:48:25.800Z,103003.47
2022-12-18T05:50:52.534Z,103005.91
2022-12-18T05:53:21.282Z,103009.25
2022-12-18T05:55:48.500Z,102995.69
2022-12-18T05:58:15.640Z,102995.56
2022-12-18T06:00:47.056Z,102998.75
2022-12-18T06:03:14.967Z,102990.19
2022-12-18T06:05:47.834Z,102989.31
2022-12-18T06:08:14.821Z,102989.31
2022-12-18T06:10:42.299Z,102991.00
2022-12-18T06:13:09.700Z,102991.81
2022-12-18T06:15:39.406Z,102981.56
2022-12-18T06:18:05.930Z,102973.81
2022-12-18T06:20:33.754Z,102974.53
2022-12-18T06:23:00.789Z,102975.28
2022-12-18T06:25:27.288Z,102977.81
2022-12-18T06:27:53.778Z,102966.66
2022-12-18T06:30:20.535Z,102970.78
2022-12-18T06:32:54.605Z,102969.91
2022-12-18T06:35:23.193Z,102963.81
2022-12-18T06:37:49.725Z,102958.59
2022-12-18T06:40:16.381Z,102957.72
2022-12-18T06:42:43.128Z,102955.91
2022-12-18T06:45:10.034Z,102959.19
2022-12-18T06:47:36.638Z,102960.00
2022-12-18T06:50:03.762Z,102946.38
2022-12-18T06:52:33.099Z,102938.69
2022-12-18T06:54:59.505Z,102941.16
2022-12-18T06:57:25.949Z,102941.94
2022-12-18T06:59:52.423Z,102935.06
2022-12-18T07:02:18.981Z,102929.97
2022-12-18T07:04:45.434Z,102926.53
2022-12-18T07:07:11.954Z,102918.78
2022-12-18T07:09:38.629Z,102921.22
2022-12-18T07:12:05.946Z,102922.06
2022-12-18T07:14:32.325Z,102923.75
2022-12-18T07:16:58.883Z,102922.06
2022-12-18T07:19:26.515Z,102913.59
2022-12-18T07:21:52.974Z,102912.84
2022-12-18T07:24:19.491Z,102917.81
2022-12-18T07:26:49.368Z,102922.03
2022-12-18T07:29:15.826Z,102916.94
2022-12-18T07:31:42.376Z,102915.22
2022-12-18T07:34:15.986Z,102905.84
2022-12-18T07:36:42.604Z,102893.97
2022-12-18T07:39:09.122Z,102884.69
2022-12-18T07:41:35.492Z,102891.38
2022-12-18T07:44:01.826Z,102893.81
2022-12-18T07:46:28.220Z,102881.22
2022-12-18T07:48:54.580Z,102879.41
2022-12-18T07:51:21.082Z,102875.16
2022-12-18T07:53:51.310Z,102873.53
2022-12-18T07:56:28.746Z,102858.41
2022-12-18T07:58:57.333Z,102860.19
2022-12-18T08:01:24.169Z,102863.69
2022-12-18T08:03:52.207Z,102865.50
2022-12-18T08:06:18.946Z,102865.63
2022-12-18T08:08:45.282Z,102860.63
2022-12-18T08:11:11.650Z,102839.59
2022-12-18T08:13:38.449Z,102834.72
2022-12-18T08:16:10.196Z,102829.88
2022-12-18T08:18:37.912Z,102838.38
2022-12-18T08:21:13.456Z,102851.19
2022-12-18T08:23:43.103Z,102849.63
2022-12-18T08:26:11.651Z,102853.97
2022-12-18T08:28:38.048Z,102858.44
2022-12-18T08:31:05.166Z,102861.09
2022-12-18T08:33:31.844Z,102876.47
2022-12-18T08:35:59.710Z,102879.16
2022-12-18T08:38:26.177Z,102872.41
2022-12-18T08:41:08.228Z,102872.41
2022-12-18T08:43:56.274Z,102863.19
2022-12-18T08:46:24.774Z,102855.63
2022-12-18T08:48:52.381Z,102858.31
2022-12-18T08:51:19.313Z,102863.53
2022-12-18T08:53:46.446Z,102861.13
2022-12-18T08:56:13.855Z,102861.31
2022-12-18T08:58:43.394Z,102858.19
2022-12-18T09:01:12.092Z,102863.59
2022-12-18T09:03:41.807Z,102874.00
2022-12-18T09:06:10.095Z,102876.75
2022-12-18T09:08:37.975Z,102875.22
2022-12-18T09:11:04.896Z,102865.25
2022-12-18T09:13:31.883Z,102854.50
2022-12-18T09:15:58.370Z,102866.50
2022-12-18T09:18:25.285Z,102857.34
2022-12-18T09:20:53.748Z,102851.66
2022-12-18T09:23:21.346Z,102851.03
2022-12-18T09:25:48.459Z,102858.03
2022-12-18T09:28:16.974Z,102854.81
2022-12-18T09:30:46.107Z,102858.34
2022-12-18T09:33:12.561Z,102858.59
2022-12-18T09:35:43.593Z,102854.63
2022-12-18T09:38:16.504Z,102841.22
2022-12-18T09:40:46.292Z,102832.13
2022-12-18T09:43:34.637Z,102825.53
2022-12-18T09:46:17.189Z,102823.31
2022-12-18T09:48:51.613Z,102826.91
2022-12-18T09:51:24.639Z,102822.84
2022-12-18T09:54:00.037Z,102822.19
2022-12-18T09:56:29.862Z,102810.53
2022-12-18T09:59:00.469Z,102810.75
2022-12-18T10:01:38.969Z,102806.66
2022-12-18T10:04:12.889Z,102806.06
2022-12-18T10:06:45.760Z,102808.84
2022-12-18T10:09:23.994Z,102798.88
2022-12-18T10:12:21.883Z,102801.59
2022-12-18T10:14:51.137Z,102800.94
2022-12-18T10:17:47.191Z,102785.00
2022-12-18T10:20:39.560Z,102792.84
2022-12-18T10:23:32.951Z,102799.00
2022-12-18T10:26:10.390Z,102799.16
2022-12-18T10:28:42.000Z,102788.22
2022-12-18T10:31:17.766Z,102792.66
2022-12-18T10:33:47.009Z,102788.47
2022-12-18T10:36:14.201Z,102775.03
2022-12-18T10:38:43.645Z,102771.75
2022-12-18T10:41:24.111Z,102785.53
2022-12-18T10:44:21.586Z,102780.56
2022-12-18T10:46:51.284Z,102780.69
2022-12-18T10:49:33.751Z,102767.19
2022-12-18T10:52:15.885Z,102767.34
2022-12-18T10:54:49.117Z,102768.31
2022-12-18T10:57:28.525Z,102762.53
2022-12-18T10:59:57.200Z,102767.75
2022-12-18T11:02:36.518Z,102751.69
2022-12-18T11:05:24.058Z,102745.88
2022-12-18T11:07:52.071Z,102740.06
2022-12-18T11:10:20.783Z,102740.16
2022-12-18T11:12:48.097Z,102730.00
2022-12-18T11:15:36.981Z,102724.22
2022-12-18T11:18:06.355Z,102720.03
2022-12-18T11:20:37.038Z,102721.03
2022-12-18T11:23:13.994Z,102711.00
2022-12-18T11:25:40.761Z,102700.91
2022-12-18T11:28:27.164Z,102695.91
2022-12-18T11:31:15.604Z,102696.03
2022-12-18T11:34:11.911Z,102689.34
2022-12-18T11:36:43.201Z,102707.38
2022-12-18T11:39:21.588Z,102706.66
2022-12-18T11:42:23.545Z,102693.19
2022-12-18T11:44:54.866Z,102706.94
2022-12-18T11:47:45.034Z,102696.81
2022-12-18T11:50:23.170Z,102690.09
2022-12-18T11:52:54.403Z,102691.06
2022-12-18T11:55:41.946Z,102691.13
2022-12-18T11:58:31.982Z,102683.53
2022-12-18T12:01:19.460Z,102676.84
2022-12-18T12:03:46.134Z,102660.72
2022-12-18T12:06:33.070Z,102665.81
2022-12-18T12:09:30.267Z,102652.28
2022-12-18T12:12:11.940Z,102646.38
2022-12-18T12:15:06.519Z,102643.00
2022-12-18T12:17:50.127Z,102647.41
2022-12-18T12:20:36.132Z,102638.94
2022-12-18T12:23:12.274Z,102637.31
2022-12-18T12:25:50.296Z,102638.25
2022-12-18T12:28:54.058Z,102627.28
2022-12-18T12:31:42.353Z,102630.75
2022-12-18T12:34:23.548Z,102624.88
2022-12-18T12:37:01.847Z,102618.16
2022-12-18T12:39:36.066Z,102609.66
2022-12-18T12:42:24.143Z,102605.47
2022-12-18T12:44:58.240Z,102606.38
2022-12-18T12:47:31.770Z,102602.16
2022-12-18T12:50:00.309Z,102589.44
2022-12-18T12:52:36.784Z,102594.56
2022-12-18T12:58:22.700Z,102581.06
2022-12-18T13:01:19.989Z,102584.50
2022-12-18T13:04:11.557Z,102581.97
2022-12-18T13:06:48.515Z,102583.75
2022-12-18T13:09:15.351Z,102577.00
2022-12-18T13:12:06.623Z,102580.44
2022-12-18T13:14:41.121Z,102576.22
2022-12-18T13:17:22.775Z,102588.19
2022-12-18T13:19:51.500Z,102583.97
2022-12-18T13:22:37.969Z,102577.19
2022-12-18T13:25:33.571Z,102585.69
2022-12-18T13:28:06.882Z,102574.69
2022-12-18T13:30:33.215Z,102578.16
2022-12-18T13:33:14.958Z,102564.50
2022-12-18T13:36:03.687Z,102565.38
2022-12-18T13:38:33.280Z,102562.84
2022-12-18T13:41:02.955Z,102554.34
2022-12-18T13:43:32.477Z,102557.75
2022-12-18T13:46:23.729Z,102548.44
2022-12-18T13:48:56.402Z,102534.81
2022-12-18T13:51:25.146Z,102528.88
2022-12-18T13:54:28.905Z,102521.19
2022-12-18T13:56:55.403Z,102525.50
2022-12-18T13:59:39.192Z,102519.56
2022-12-18T14:02:32.191Z,102520.44
2022-12-18T14:05:14.596Z,102523.88
2022-12-18T14:07:45.132Z,102516.22
2022-12-18T14:10:44.451Z,102511.16
2022-12-18T14:13:43.555Z,102507.75
2022-12-18T14:16:16.286Z,102508.63
2022-12-18T14:19:05.216Z,102499.31
2022-12-18T14:22:02.087Z,102489.09
2022-12-18T14:24:34.604Z,102493.41
2022-12-18T14:27:30.674Z,102482.34
2022-12-18T14:30:01.736Z,102484.00
2022-12-18T14:32:28.252Z,102477.25
2022-12-18T14:35:26.414Z,102467.94
2022-12-18T14:37:53.341Z,102465.31
2022-12-18T14:40:47.380Z,102465.38
2022-12-18T14:43:16.201Z,102464.53
2022-12-18T14:46:24.218Z,102468.00
2022-12-18T14:48:53.169Z,102469.69
2022-12-18T14:51:31.735Z,102456.03
2022-12-18T14:54:23.005Z,102448.41
2022-12-18T14:57:44.441Z,102451.03
2022-12-18T15:00:26.649Z,102447.59
2022-12-18T15:03:11.391Z,102454.44
2022-12-18T15:06:29.657Z,102440.78
2022-12-18T15:09:21.470Z,102446.75
2022-12-18T15:12:05.485Z,102453.59
2022-12-18T15:18:11.872Z,102442.50
2022-12-18T15:21:34.141Z,102436.50
2022-12-18T15:24:56.134Z,102440.81
2022-12-18T15:31:25.370Z,102436.56
2022-12-18T15:33:56.817Z,102433.19
2022-12-18T15:36:47.921Z,102438.31
2022-12-18T15:39:15.033Z,102447.75
2022-12-18T15:42:01.574Z,102440.06
2022-12-18T15:44:28.418Z,102449.47
2022-12-18T15:47:04.076Z,102440.94
2022-12-18T15:50:14.956Z,102437.53
2022-12-18T15:52:48.222Z,102434.16
2022-12-18T15:55:39.942Z,102420.50
2022-12-18T15:58:17.982Z,102420.53
2022-12-18T16:00:48.873Z,102407.75
2022-12-18T16:03:27.713Z,102403.50
2022-12-18T16:07:14.470Z,102401.84
2022-12-18T16:09:26.031Z,102399.28
2022-12-18T16:11:52.872Z,102399.31
2022-12-18T16:14:50.335Z,102393.34
2022-12-18T16:17:36.122Z,102389.94
2022-12-18T16:20:46.887Z,102380.56
2022-12-18T16:27:57.044Z,102358.38
2022-12-18T16:34:07.453Z,102345.66
2022-12-18T16:36:34.638Z,102330.31
2022-12-18T16:39:07.180Z,102332.88
2022-12-18T16:41:37.372Z,102328.59
2022-12-18T16:44:04.617Z,102322.69
2022-12-18T16:46:39.172Z,102328.66
2022-12-18T16:49:11.680Z,102329.56
2022-12-18T16:51:48.159Z,102330.41
2022-12-18T16:54:19.013Z,102322.75
2022-12-18T16:56:51.249Z,102324.47
2022-12-18T16:59:24.522Z,102321.03
2022-12-18T17:01:55.786Z,102321.06
2022-12-18T17:04:34.963Z,102313.44
2022-12-18T17:07:04.818Z,102322.81
2022-12-18T17:09:31.461Z,102322.00
2022-12-18T17:11:57.980Z,102325.41
2022-12-18T17:14:28.458Z,102331.38
2022-12-18T17:17:19.894Z,102327.97
2022-12-18T17:19:43.498Z,102326.28
2022-12-18T17:22:12.946Z,102328.06
2022-12-18T17:24:39.699Z,102324.66
2022-12-18T17:27:09.055Z,102321.22
2022-12-18T17:29:43.949Z,102326.34
2022-12-18T17:32:13.483Z,102327.22
2022-12-18T17:34:40.818Z,102320.41
2022-12-18T17:37:07.639Z,102317.00
2022-12-18T17:39:39.426Z,102328.09
2022-12-18T17:42:15.621Z,102329.84
2022-12-18T17:44:43.046Z,102314.50
2022-12-18T17:47:13.576Z,102322.19
2022-12-18T17:49:43.497Z,102320.47
2022-12-18T17:52:37.359Z,102325.59
2022-12-18T17:56:18.611Z,102320.47
2022-12-18T17:58:56.401Z,102314.53
2022-12-18T18:01:49.924Z,102318.81
2022-12-18T18:04:38.123Z,102312.84
2022-12-18T18:07:25.690Z,102318.00
2022-12-18T18:18:45.719Z,102322.34
2022-12-18T18:25:23.586Z,102326.59
2022-12-18T18:27:50.724Z,102324.94
2022-12-18T18:30:17.314Z,102313.00
2022-12-18T18:32:46.040Z,102319.84
2022-12-18T18:35:37.534Z,102313.91
2022-12-18T18:37:59.165Z,102307.94
2022-12-18T18:40:25.575Z,102304.56
2022-12-18T18:42:55.967Z,102309.69
2022-12-18T18:45:22.360Z,102307.13
2022-12-18T18:47:48.744Z,102304.63
2022-12-18T18:50:15.141Z,102304.63
2022-12-18T18:52:41.607Z,102291.84
2022-12-18T18:55:25.236Z,102291.88
2022-12-18T18:57:52.050Z,102291.06
2022-12-18T19:00:18.756Z,102297.91
2022-12-18T19:02:45.774Z,102296.19
2022-12-18T19:05:12.313Z,102288.56
2022-12-18T19:07:38.775Z,102289.47
2022-12-18T19:10:05.748Z,102290.31
2022-12-18T19:12:51.333Z,102287.75
2022-12-18T19:15:17.737Z,102286.09
2022-12-18T19:17:45.983Z,102280.97
2022-12-18T19:20:14.275Z,102287.84
2022-12-18T19:22:40.655Z,102287.00
2022-12-18T19:25:09.305Z,102276.81
2022-12-18T19:27:38.844Z,102284.50
2022-12-18T19:30:05.917Z,102282.81
2022-12-18T19:32:32.472Z,102284.53
2022-12-18T19:34:59.144Z,102281.97
2022-12-18T19:37:25.749Z,102285.38
2022-12-18T19:39:52.714Z,102288.00
2022-12-18T19:42:25.524Z,102293.13
2022-12-18T19:44:54.601Z,102294.84
2022-12-18T19:47:21.007Z,102292.31
2022-12-18T19:49:47.464Z,102300.88
2022-12-18T19:52:16.063Z,102294.09
2022-12-18T19:54:42.560Z,102293.25
2022-12-18T19:57:11.431Z,102290.72
2022-12-18T19:59:37.970Z,102294.97
2022-12-18T20:02:05.599Z,102292.41
2022-12-18T20:04:32.174Z,102283.84
2022-12-18T20:06:58.901Z,102277.03
2022-12-18T20:09:25.396Z,102285.56
2022-12-18T20:11:52.893Z,102281.25
2022-12-18T20:14:23.400Z,102277.88
2022-12-18T20:16:51.340Z,102282.09
2022-12-18T20:19:18.450Z,102284.66
2022-12-18T20:21:45.417Z,102276.09
2022-12-18T20:24:12.896Z,102283.75
2022-12-18T20:26:40.449Z,102277.75
2022-12-18T20:29:06.867Z,102286.31
2022-12-18T20:31:33.368Z,102287.13
2022-12-18T20:34:01.664Z,102286.28
2022-12-18T20:36:30.643Z,102281.16
2022-12-18T20:39:01.487Z,102282.03
2022-12-18T20:41:38.154Z,102276.91
2022-12-18T20:44:21.644Z,102272.63
2022-12-18T20:46:55.514Z,102269.22
2022-12-18T20:49:23.187Z,102266.59
2022-12-18T20:51:51.659Z,102273.47
2022-12-18T20:54:18.056Z,102264.91
2022-12-18T20:56:44.520Z,102257.22
2022-12-18T20:59:11.338Z,102257.22
2022-12-18T21:01:39.018Z,102252.94
2022-12-18T21:04:07.917Z,102252.97
2022-12-18T21:06:34.702Z,102243.53
2022-12-18T21:09:01.312Z,102236.75
2022-12-18T21:11:49.159Z,102222.22
2022-12-18T21:14:21.869Z,102215.41
2022-12-18T21:16:53.301Z,102214.53
2022-12-18T21:19:25.466Z,102217.09
2022-12-18T21:21:52.799Z,102221.38
2022-12-18T21:24:20.092Z,102219.72
2022-12-18T21:26:47.888Z,102210.28
2022-12-18T21:29:23.489Z,102213.69
2022-12-18T21:31:51.497Z,102206.91
2022-12-18T21:34:26.419Z,102200.94
2022-12-18T21:36:54.187Z,102201.78
2022-12-18T21:39:21.473Z,102200.94
2022-12-18T21:42:07.910Z,102200.09
2022-12-18T21:44:36.145Z,102200.94
2022-12-18T21:47:22.070Z,102200.94
2022-12-18T21:49:53.209Z,102195.84
2022-12-18T21:52:31.378Z,102183.06
2022-12-18T21:55:06.242Z,102191.59
2022-12-18T21:57:35.625Z,102186.50
2022-12-18T22:00:03.013Z,102177.97
2022-12-18T22:02:29.665Z,102153.22
2022-12-18T22:04:56.216Z,102162.63
2022-12-18T22:07:22.969Z,102172.88
2022-12-18T22:09:49.591Z,102160.13
2022-12-18T22:12:35.106Z,102151.59
2022-12-18T22:15:04.373Z,102144.75
2022-12-18T22:17:30.888Z,102146.47
2022-12-18T22:19:57.511Z,102143.91
2022-12-18T22:22:23.956Z,102138.78
2022-12-18T22:24:50.349Z,102140.53
2022-12-18T22:27:16.745Z,102131.97
2022-12-18T22:30:01.507Z,102111.50
2022-12-18T22:32:31.413Z,102106.38
2022-12-18T22:35:07.192Z,102103.00
2022-12-18T22:37:34.618Z,102092.75
2022-12-18T22:40:03.301Z,102081.69
2022-12-18T22:42:31.330Z,102064.59
2022-12-18T22:44:57.758Z,102068.88
2022-12-18T22:47:27.999Z,102055.22
2022-12-18T22:49:56.388Z,102065.47
2022-12-18T22:52:23.824Z,102056.09
2022-12-18T22:54:53.316Z,102055.22
2022-12-18T22:57:21.580Z,102059.50
2022-12-18T22:59:48.145Z,102062.06
2022-12-18T23:02:14.705Z,102062.94
2022-12-18T23:04:41.328Z,102064.66
2022-12-18T23:07:07.750Z,102053.59
2022-12-18T23:09:34.513Z,102046.75
2022-12-18T23:12:01.646Z,102028.81
2022-12-18T23:14:29.342Z,102018.59
2022-12-18T23:16:56.350Z,102013.47
2022-12-18T23:19:23.823Z,102010.06
2022-12-18T23:21:51.152Z,102009.22
2022-12-18T23:24:18.163Z,102021.22
2022-12-18T23:26:44.600Z,102025.47
2022-12-18T23:29:11.139Z,102020.34
2022-12-18T23:31:39.034Z,102023.78
2022-12-18T23:34:06.767Z,102016.09
2022-12-18T23:36:45.349Z,102021.25
2022-12-18T23:39:15.315Z,102007.56
2022-12-18T23:41:55.888Z,101977.69
2022-12-18T23:44:22.330Z,101975.13
2022-12-18T23:46:48.803Z,101970.00
2022-12-18T23:49:15.324Z,101958.91
2022-12-18T23:51:41.722Z,101964.03
2022-12-18T23:54:09.290Z,101976.00
2022-12-18T23:56:35.765Z,101978.56
2022-12-18T23:59:02.222Z,101970.84
